Impacts METAR Board
IDs:

KAQO - Llano Muni, TX, US

Updated at: 1300 UTC 14 Dec 2019
Potential Impact None Slight Moderate High
Time 14/01Z 14/02Z 14/03Z 14/04Z 14/05Z 14/06Z 14/07Z 14/08Z 14/09Z 14/10Z 14/11Z 14/12Z 14/13Z
Temp55 50 48 46 46 43 43 39 39 37 36 36 36
Dewpt39 39 39 39 37 37 37 36 36 34 34 34 34
Altim29.89 29.90 29.91 29.92 29.92 29.91 29.92 29.92 29.90 29.90 29.90 29.89 29.89
VIS10 10 10 10 10 10 10 10 10 10 10 10 10
CIG-- -- -- -- -- -- -- -- -- -- -- -- --
CoverCLRCLRCLRCLRCLRCLRCLRCLRCLRCLRCLRCLRCLR
FltCatVFRVFRVFRVFRVFRVFRVFRVFRVFRVFRVFRVFRVFR
WX--------------------------
WDir0000000000000
WSpd0 0 0 0 0 0 0 0 0 0 0 0 0
WGst-- -- -- -- -- -- -- -- -- -- -- -- --
Raw hourly METARs
KAQO 140055Z AUTO 00000KT 10SM CLR 13/04 A2989 RMK AO2 PWINO
KAQO 140155Z AUTO 00000KT 10SM CLR 10/04 A2990 RMK AO2 PWINO
KAQO 140255Z AUTO 00000KT 10SM CLR 09/04 A2991 RMK AO2 PWINO
KAQO 140355Z AUTO 00000KT 10SM CLR 08/04 A2992 RMK AO2 PWINO
KAQO 140455Z AUTO 00000KT 10SM CLR 08/03 A2992 RMK AO2 PWINO
KAQO 140555Z AUTO 00000KT 10SM CLR 06/03 A2991 RMK AO2 PWINO
KAQO 140655Z AUTO 00000KT 10SM CLR 06/03 A2992 RMK AO2 PWINO
KAQO 140755Z AUTO 00000KT 10SM CLR 04/02 A2992 RMK AO2 PWINO
KAQO 140855Z AUTO 00000KT 10SM CLR 04/02 A2990 RMK AO2 PWINO
KAQO 140955Z AUTO 00000KT 10SM CLR 03/01 A2990 RMK AO2 PWINO
KAQO 141055Z AUTO 00000KT 10SM CLR 02/01 A2990 RMK AO2 PWINO
KAQO 141155Z AUTO 00000KT 10SM CLR 02/01 A2989 RMK AO2 PWINO
KAQO 141255Z AUTO 00000KT 10SM CLR 02/01 A2989 RMK AO2 PWINO



Page loaded:  13:48 UTC  |   05:48 AM Pacific  |   06:48 AM Mountain  |   07:48 AM Central  |   08:48 AM Eastern

 

ADVISORIES

FORECASTS

FORECASTS

OBSERVATIONS

USER TOOLS

ABOUT US